createdAt,value
2024-05-09T00:02:32.159Z,10.68
2024-05-09T00:05:17.619Z,10.23
2024-05-09T00:08:03.099Z,10.10
2024-05-09T00:10:48.551Z,8.50
2024-05-09T00:13:33.976Z,9.57
2024-05-09T00:16:18.903Z,7.88
2024-05-09T00:19:04.111Z,10.45
2024-05-09T00:21:49.510Z,8.52
2024-05-09T00:24:34.681Z,12.65
2024-05-09T00:27:20.618Z,9.70
2024-05-09T00:30:07.320Z,9.15
2024-05-09T00:32:53.311Z,8.40
2024-05-09T00:35:38.901Z,13.23
2024-05-09T00:38:24.485Z,8.43
2024-05-09T00:41:10.109Z,9.35
2024-05-09T00:43:55.357Z,8.63
2024-05-09T00:46:40.761Z,10.20
2024-05-09T00:49:26.520Z,8.88
2024-05-09T00:52:11.721Z,11.80
2024-05-09T00:54:56.901Z,10.05
2024-05-09T00:57:42.140Z,8.07
2024-05-09T01:00:35.652Z,11.95
2024-05-09T01:03:25.052Z,10.00
2024-05-09T01:06:10.715Z,10.20
2024-05-09T01:08:55.455Z,9.82
2024-05-09T01:11:41.307Z,12.95
2024-05-09T01:14:26.847Z,10.10
2024-05-09T01:17:12.079Z,9.82
2024-05-09T01:19:57.486Z,9.15
2024-05-09T01:22:44.374Z,11.13
2024-05-09T01:25:29.836Z,10.98
2024-05-09T01:28:16.077Z,11.70
2024-05-09T01:31:01.337Z,13.98
2024-05-09T01:33:46.511Z,8.57
2024-05-09T01:36:31.951Z,9.57
2024-05-09T01:39:16.892Z,9.93
2024-05-09T01:42:01.872Z,11.05
2024-05-09T01:44:46.998Z,10.45
2024-05-09T01:47:32.167Z,12.70
2024-05-09T01:50:22.482Z,10.45
2024-05-09T01:53:15.153Z,8.53
2024-05-09T01:56:00.943Z,8.68
2024-05-09T01:58:46.369Z,9.07
2024-05-09T02:01:55.299Z,9.43
2024-05-09T02:04:36.712Z,13.73
2024-05-09T02:07:22.213Z,10.57
2024-05-09T02:10:13.762Z,9.07
2024-05-09T02:13:01.678Z,10.35
2024-05-09T02:15:46.719Z,12.23
2024-05-09T02:18:31.990Z,8.65
2024-05-09T02:21:17.291Z,9.70
2024-05-09T02:24:02.962Z,7.47
2024-05-09T02:26:47.747Z,8.63
2024-05-09T02:29:33.034Z,9.43
2024-05-09T02:32:18.284Z,9.60
2024-05-09T02:35:03.657Z,14.50
2024-05-09T02:37:49.115Z,7.63
2024-05-09T02:40:37.924Z,10.13
2024-05-09T02:43:24.298Z,8.40
2024-05-09T02:46:09.319Z,8.70
2024-05-09T02:48:54.357Z,11.95
2024-05-09T02:51:39.744Z,9.55
2024-05-09T02:54:24.617Z,10.05
2024-05-09T02:57:09.571Z,10.15
2024-05-09T02:59:54.733Z,10.68
2024-05-09T03:02:42.493Z,9.68
2024-05-09T03:05:27.513Z,8.70
2024-05-09T03:08:13.222Z,12.02
2024-05-09T03:10:58.434Z,10.02
2024-05-09T03:13:43.733Z,9.95
2024-05-09T03:16:29.072Z,11.88
2024-05-09T03:19:14.142Z,9.27
2024-05-09T03:21:59.543Z,7.80
2024-05-09T03:24:44.524Z,11.18
2024-05-09T03:27:29.391Z,10.40
2024-05-09T03:30:26.033Z,7.70
2024-05-09T03:33:20.568Z,9.73
2024-05-09T03:36:09.778Z,9.68
2024-05-09T03:38:56.311Z,10.93
2024-05-09T03:41:41.322Z,10.35
2024-05-09T03:44:26.925Z,9.73
2024-05-09T03:47:12.296Z,11.00
2024-05-09T03:49:57.810Z,11.57
2024-05-09T03:52:43.093Z,10.68
2024-05-09T03:55:28.411Z,9.73
2024-05-09T03:58:14.522Z,10.10
2024-05-09T04:00:59.807Z,9.20
2024-05-09T04:03:44.988Z,7.60
2024-05-09T04:06:30.105Z,9.57
2024-05-09T04:09:15.108Z,10.32
2024-05-09T04:12:00.109Z,10.20
2024-05-09T04:14:45.370Z,9.95
2024-05-09T04:17:30.531Z,10.07
2024-05-09T04:20:28.242Z,9.38
2024-05-09T04:23:19.419Z,14.70
2024-05-09T04:26:05.086Z,11.38
2024-05-09T04:28:50.211Z,11.07
2024-05-09T04:31:36.031Z,10.00
2024-05-09T04:34:21.267Z,12.38
2024-05-09T04:37:07.131Z,10.10
2024-05-09T04:39:52.237Z,13.77
2024-05-09T04:42:37.194Z,10.02
2024-05-09T04:45:22.248Z,10.32
2024-05-09T04:48:07.531Z,9.98
2024-05-09T04:50:52.493Z,10.10
2024-05-09T04:53:37.758Z,12.52
2024-05-09T04:56:23.125Z,10.15
2024-05-09T04:59:08.515Z,11.82
2024-05-09T05:01:54.160Z,10.43
2024-05-09T05:04:39.476Z,12.20
2024-05-09T05:07:24.873Z,8.88
2024-05-09T05:10:14.876Z,11.38
2024-05-09T05:13:15.803Z,11.80
2024-05-09T05:16:01.002Z,11.90
2024-05-09T05:18:46.459Z,9.75
2024-05-09T05:21:31.837Z,13.45
2024-05-09T05:24:17.109Z,9.30
2024-05-09T05:27:02.226Z,11.85
2024-05-09T05:29:47.093Z,10.68
2024-05-09T05:32:32.693Z,11.20
2024-05-09T05:35:17.797Z,14.68
2024-05-09T05:38:03.777Z,11.20
2024-05-09T05:40:48.935Z,12.52
2024-05-09T05:43:34.081Z,11.85
2024-05-09T05:46:19.196Z,14.18
2024-05-09T05:49:04.056Z,17.73
2024-05-09T05:51:49.321Z,13.55
2024-05-09T05:54:34.215Z,11.95
2024-05-09T05:57:19.460Z,11.02
2024-05-09T06:00:09.380Z,13.90
2024-05-09T06:02:54.749Z,14.60
2024-05-09T06:05:40.698Z,12.02
2024-05-09T06:08:28.984Z,12.15
2024-05-09T06:11:15.222Z,9.35
2024-05-09T06:14:01.532Z,11.18
2024-05-09T06:16:46.713Z,13.98
2024-05-09T06:19:32.155Z,15.43
2024-05-09T06:22:17.599Z,10.30
2024-05-09T06:25:02.365Z,9.52
2024-05-09T06:27:47.338Z,9.70
2024-05-09T06:30:42.207Z,8.88
2024-05-09T06:33:28.511Z,8.20
2024-05-09T06:36:13.761Z,12.23
2024-05-09T06:38:58.730Z,10.10
2024-05-09T06:41:43.670Z,12.10
2024-05-09T06:44:29.266Z,12.68
2024-05-09T06:47:14.675Z,13.30
2024-05-09T06:50:00.128Z,10.40
2024-05-09T06:52:48.496Z,10.52
2024-05-09T06:55:33.970Z,12.25
2024-05-09T06:58:18.986Z,9.68
2024-05-09T07:01:04.055Z,9.98
2024-05-09T07:03:49.325Z,12.60
2024-05-09T07:06:34.827Z,13.63
2024-05-09T07:09:19.821Z,12.70
2024-05-09T07:12:05.176Z,12.43
2024-05-09T07:14:50.774Z,14.43
2024-05-09T07:17:35.974Z,13.70
2024-05-09T07:20:31.400Z,16.67
2024-05-09T07:23:19.466Z,12.10
2024-05-09T07:26:04.878Z,14.73
2024-05-09T07:28:50.286Z,13.57
2024-05-09T07:31:35.464Z,14.82
2024-05-09T07:34:20.564Z,13.40
2024-05-09T07:37:12.494Z,15.63
2024-05-09T07:39:57.878Z,13.43
2024-05-09T07:42:42.791Z,15.20
2024-05-09T07:45:44.956Z,12.80
2024-05-09T07:50:33.300Z,13.43
2024-05-09T07:54:29.049Z,4.20
2024-05-09T07:57:14.250Z,18.60
2024-05-09T07:59:59.573Z,13.45
2024-05-09T08:02:44.555Z,13.70
2024-05-09T08:05:30.084Z,14.25
2024-05-09T08:08:15.274Z,13.90
2024-05-09T08:11:00.121Z,14.48
2024-05-09T08:13:45.168Z,13.02
2024-05-09T08:16:30.245Z,13.07
2024-05-09T08:19:15.720Z,14.65
2024-05-09T08:22:06.858Z,14.10
2024-05-09T08:24:52.171Z,15.63
2024-05-09T08:27:37.578Z,13.03
2024-05-09T08:30:30.104Z,14.13
2024-05-09T08:33:21.288Z,11.85
2024-05-09T08:36:06.802Z,18.05
2024-05-09T08:38:51.636Z,14.05
2024-05-09T08:41:40.514Z,19.58
2024-05-09T08:44:26.459Z,16.77
2024-05-09T08:47:11.540Z,11.23
2024-05-09T08:49:58.667Z,11.75
2024-05-09T08:52:44.078Z,12.75
2024-05-09T08:55:29.112Z,8.77
2024-05-09T08:58:16.031Z,11.23
2024-05-09T09:01:02.453Z,9.48
2024-05-09T09:03:48.691Z,11.23
2024-05-09T09:06:34.666Z,10.82
2024-05-09T09:09:20.231Z,8.85
2024-05-09T09:12:06.719Z,9.98
2024-05-09T09:14:53.010Z,16.48
2024-05-09T09:17:37.955Z,10.45
2024-05-09T09:20:29.508Z,7.68
2024-05-09T09:23:21.184Z,10.65
2024-05-09T09:26:06.349Z,8.80
2024-05-09T09:28:51.658Z,8.48
2024-05-09T09:31:37.410Z,6.68
2024-05-09T09:34:26.485Z,7.70
2024-05-09T09:37:11.938Z,7.95
2024-05-09T09:39:58.362Z,8.00
2024-05-09T09:42:43.873Z,6.60
2024-05-09T09:45:29.260Z,4.97
2024-05-09T09:48:14.777Z,4.72
2024-05-09T09:51:00.278Z,4.47
2024-05-09T09:53:45.936Z,5.63
2024-05-09T09:56:31.087Z,8.20
2024-05-09T09:59:16.584Z,11.68
2024-05-09T10:02:02.163Z,5.60
2024-05-09T10:04:48.068Z,6.82
2024-05-09T10:07:34.627Z,10.15
2024-05-09T10:10:31.974Z,7.35
2024-05-09T10:13:19.948Z,4.75
2024-05-09T10:16:11.796Z,4.80
2024-05-09T10:18:57.355Z,5.60
2024-05-09T10:21:48.813Z,3.95
2024-05-09T10:24:50.196Z,5.03
2024-05-09T10:27:35.623Z,9.15
2024-05-09T10:33:12.200Z,6.50
2024-05-09T10:36:02.528Z,5.55
2024-05-09T10:38:48.561Z,3.80
2024-05-09T10:41:33.566Z,8.15
2024-05-09T10:44:18.651Z,3.85
2024-05-09T10:47:04.231Z,7.65
2024-05-09T10:49:49.822Z,5.35
2024-05-09T10:52:35.251Z,9.88
2024-05-09T10:55:20.222Z,4.45
2024-05-09T10:58:15.838Z,5.15
2024-05-09T11:01:04.367Z,6.95
2024-05-09T11:03:51.972Z,5.28
2024-05-09T11:06:38.453Z,6.78
2024-05-09T11:09:23.808Z,3.83
2024-05-09T11:12:09.071Z,5.93
2024-05-09T11:14:54.477Z,4.57
2024-05-09T11:17:39.406Z,5.00
2024-05-09T11:20:35.272Z,4.10
2024-05-09T11:23:27.878Z,7.32
2024-05-09T11:26:15.270Z,5.07
2024-05-09T11:29:00.446Z,3.92
2024-05-09T11:31:46.652Z,4.07
2024-05-09T11:34:32.395Z,5.72
2024-05-09T11:37:18.053Z,4.43
2024-05-09T11:40:05.404Z,7.60
2024-05-09T11:42:53.237Z,4.28
2024-05-09T11:45:38.748Z,5.28
2024-05-09T11:48:24.155Z,6.28
2024-05-09T11:51:09.294Z,6.60
2024-05-09T11:53:54.613Z,4.25
2024-05-09T11:56:39.586Z,4.97
2024-05-09T11:59:24.440Z,6.05
2024-05-09T12:02:09.651Z,5.15
2024-05-09T12:04:54.958Z,5.65
2024-05-09T12:07:40.299Z,4.88
2024-05-09T12:10:32.671Z,6.68
2024-05-09T12:13:20.547Z,4.45
2024-05-09T12:16:06.161Z,5.47
2024-05-09T12:18:51.537Z,3.88
2024-05-09T12:21:36.969Z,3.22
2024-05-09T12:24:23.917Z,4.18
2024-05-09T12:27:09.144Z,3.78
2024-05-09T12:29:54.031Z,6.22
2024-05-09T12:32:39.107Z,3.40
2024-05-09T12:35:25.758Z,4.95
2024-05-09T12:38:11.159Z,5.15
2024-05-09T12:40:56.183Z,4.22
2024-05-09T12:43:41.270Z,5.30
2024-05-09T12:46:26.526Z,4.72
2024-05-09T12:49:13.748Z,4.13
2024-05-09T12:51:59.772Z,5.32
2024-05-09T12:54:45.326Z,5.60
2024-05-09T12:57:30.881Z,8.43
2024-05-09T13:00:23.766Z,4.70
2024-05-09T13:03:13.599Z,3.75
2024-05-09T13:05:59.096Z,6.53
2024-05-09T13:08:44.143Z,5.65
2024-05-09T13:11:29.142Z,5.95
2024-05-09T13:14:14.614Z,4.55
2024-05-09T13:16:59.809Z,7.38
2024-05-09T13:19:45.277Z,5.10
2024-05-09T13:22:30.241Z,5.50
2024-05-09T13:25:15.227Z,4.93
2024-05-09T13:28:00.538Z,5.43
2024-05-09T13:30:46.264Z,4.70
2024-05-09T13:33:33.052Z,5.07
2024-05-09T13:36:18.295Z,4.18
2024-05-09T13:39:03.913Z,3.78
2024-05-09T13:41:49.398Z,3.40
2024-05-09T13:44:34.187Z,4.47
2024-05-09T13:47:19.713Z,3.75
2024-05-09T13:50:06.899Z,2.88
2024-05-09T13:52:54.255Z,8.75
2024-05-09T13:55:39.809Z,3.97
2024-05-09T13:58:25.045Z,3.35
2024-05-09T14:01:10.467Z,6.70
2024-05-09T14:03:55.630Z,5.35
2024-05-09T14:06:41.173Z,2.55
2024-05-09T14:09:27.845Z,3.40
2024-05-09T14:12:13.123Z,4.85
2024-05-09T14:14:58.612Z,6.63
2024-05-09T14:17:43.686Z,4.18
2024-05-09T14:20:31.693Z,9.10
2024-05-09T14:23:17.810Z,4.38
2024-05-09T14:26:03.277Z,3.92
2024-05-09T14:28:48.087Z,2.88
2024-05-09T14:31:34.843Z,2.80
2024-05-09T14:34:20.908Z,5.27
2024-05-09T14:37:06.073Z,5.60
2024-05-09T14:39:51.393Z,3.22
2024-05-09T14:42:36.576Z,4.38
2024-05-09T14:45:21.862Z,5.05
2024-05-09T14:48:07.115Z,3.72
2024-05-09T14:50:52.501Z,3.92
2024-05-09T14:53:37.239Z,5.80
2024-05-09T14:56:22.302Z,5.57
2024-05-09T14:59:07.511Z,4.40
2024-05-09T15:01:52.843Z,4.75
2024-05-09T15:04:38.761Z,3.60
2024-05-09T15:07:23.971Z,2.67
2024-05-09T15:10:16.464Z,6.45
2024-05-09T15:13:08.039Z,6.35
2024-05-09T15:15:55.829Z,3.28
2024-05-09T15:18:43.785Z,2.50
2024-05-09T15:21:29.268Z,7.00
2024-05-09T15:24:14.501Z,3.78
2024-05-09T15:26:59.348Z,3.33
2024-05-09T15:29:45.475Z,4.20
2024-05-09T15:32:30.922Z,3.17
2024-05-09T15:35:16.114Z,3.22
2024-05-09T15:38:02.815Z,3.70
2024-05-09T15:40:48.285Z,4.45
2024-05-09T15:43:33.722Z,7.63
2024-05-09T15:46:19.140Z,5.20
2024-05-09T15:49:04.566Z,3.67
2024-05-09T15:51:49.945Z,4.85
2024-05-09T15:54:35.107Z,4.38
2024-05-09T15:57:20.533Z,5.82
2024-05-09T16:00:09.832Z,4.07
2024-05-09T16:02:57.737Z,6.65
2024-05-09T16:05:44.528Z,3.42
2024-05-09T16:08:29.648Z,7.38
2024-05-09T16:11:17.066Z,4.43
2024-05-09T16:14:02.409Z,5.05
2024-05-09T16:16:47.799Z,4.68
2024-05-09T16:19:32.977Z,4.22
2024-05-09T16:22:18.190Z,3.60
2024-05-09T16:25:03.564Z,4.00
2024-05-09T16:27:50.479Z,5.38
2024-05-09T16:30:36.314Z,6.40
2024-05-09T16:33:23.959Z,3.70
2024-05-09T16:36:08.969Z,4.25
2024-05-09T16:38:53.809Z,7.10
2024-05-09T16:41:38.630Z,4.97
2024-05-09T16:44:23.759Z,5.53
2024-05-09T16:47:08.638Z,4.10
2024-05-09T16:49:54.088Z,3.85
2024-05-09T16:52:39.281Z,5.47
2024-05-09T16:55:25.186Z,5.63
2024-05-09T16:58:12.428Z,4.80
2024-05-09T17:00:57.660Z,4.10
2024-05-09T17:03:43.403Z,6.22
2024-05-09T17:06:28.571Z,6.10
2024-05-09T17:09:15.677Z,7.13
2024-05-09T17:12:14.417Z,6.23
2024-05-09T17:14:59.471Z,12.02
2024-05-09T17:17:44.488Z,14.23
2024-05-09T17:20:34.236Z,9.52
2024-05-09T17:23:21.820Z,5.53
2024-05-09T17:26:06.814Z,7.28
2024-05-09T17:28:52.072Z,7.00
2024-05-09T17:31:37.376Z,9.07
2024-05-09T17:34:22.959Z,7.55
2024-05-09T17:37:08.339Z,7.72
2024-05-09T17:39:57.386Z,6.32
2024-05-09T17:42:42.829Z,9.57
2024-05-09T17:45:28.152Z,7.22
2024-05-09T17:48:13.262Z,6.65
2024-05-09T17:50:58.300Z,6.55
2024-05-09T17:53:43.607Z,6.35
2024-05-09T17:56:28.788Z,7.05
2024-05-09T17:59:13.666Z,8.02
2024-05-09T18:01:58.882Z,6.45
2024-05-09T18:04:44.355Z,5.60
2024-05-09T18:07:29.663Z,6.15
2024-05-09T18:10:21.946Z,5.97
2024-05-09T18:13:11.620Z,5.53
2024-05-09T18:15:57.297Z,6.75
2024-05-09T18:18:42.862Z,8.48
2024-05-09T18:21:28.164Z,7.93
2024-05-09T18:24:13.057Z,5.80
2024-05-09T18:26:58.801Z,6.55
2024-05-09T18:29:43.581Z,6.15
2024-05-09T18:32:28.634Z,6.13
2024-05-09T18:35:13.996Z,7.70
2024-05-09T18:37:58.937Z,7.55
2024-05-09T18:40:46.217Z,7.85
2024-05-09T18:43:38.552Z,6.90
2024-05-09T18:46:30.252Z,7.55
2024-05-09T18:49:15.692Z,5.97
2024-05-09T18:52:01.246Z,4.65
2024-05-09T18:54:46.240Z,7.35
2024-05-09T18:57:32.032Z,8.38
2024-05-09T19:00:30.751Z,12.13
2024-05-09T19:03:20.674Z,11.88
2024-05-09T19:06:06.301Z,7.35
2024-05-09T19:08:51.564Z,8.70
2024-05-09T19:11:39.818Z,6.72
2024-05-09T19:14:25.292Z,9.13
2024-05-09T19:17:10.752Z,38.22
2024-05-09T19:19:56.609Z,9.25
2024-05-09T19:22:41.838Z,10.23
2024-05-09T19:25:26.582Z,6.18
2024-05-09T19:28:12.014Z,8.25
2024-05-09T19:30:56.769Z,5.35
2024-05-09T19:33:41.924Z,13.00
2024-05-09T19:36:27.599Z,8.40
2024-05-09T19:39:13.016Z,7.15
2024-05-09T19:41:58.637Z,6.25
2024-05-09T19:44:43.354Z,7.50
2024-05-09T19:47:28.394Z,7.00
2024-05-09T19:50:19.558Z,9.40
2024-05-09T19:53:08.544Z,7.00
2024-05-09T19:55:53.728Z,6.72
2024-05-09T19:58:39.122Z,9.35
2024-05-09T20:01:24.478Z,7.85
2024-05-09T20:04:09.972Z,10.15
2024-05-09T20:06:55.073Z,6.35
2024-05-09T20:09:40.044Z,9.63
2024-05-09T20:12:25.533Z,7.63
2024-05-09T20:15:10.376Z,10.80
2024-05-09T20:17:57.887Z,8.10
2024-05-09T20:20:45.167Z,6.88
2024-05-09T20:23:30.772Z,7.53
2024-05-09T20:26:15.869Z,5.60
2024-05-09T20:29:01.011Z,8.18
2024-05-09T20:31:46.180Z,5.43
2024-05-09T20:34:31.166Z,5.68
2024-05-09T20:37:16.821Z,5.65
2024-05-09T20:40:01.932Z,9.32
2024-05-09T20:42:47.006Z,5.72
2024-05-09T20:45:32.239Z,4.53
2024-05-09T20:48:17.720Z,5.03
2024-05-09T20:51:02.947Z,8.07
2024-05-09T20:53:47.951Z,5.88
2024-05-09T20:56:32.795Z,6.22
2024-05-09T20:59:17.899Z,4.68
2024-05-09T21:02:03.213Z,6.60
2024-05-09T21:04:48.851Z,6.18
2024-05-09T21:07:34.141Z,4.72
2024-05-09T21:10:22.552Z,6.75
2024-05-09T21:13:08.291Z,6.45
2024-05-09T21:15:53.835Z,8.35
2024-05-09T21:18:39.369Z,4.65
2024-05-09T21:21:24.842Z,6.05
2024-05-09T21:24:09.641Z,8.13
2024-05-09T21:26:54.647Z,4.85
2024-05-09T21:29:39.647Z,6.30
2024-05-09T21:32:24.930Z,9.25
2024-05-09T21:35:10.368Z,7.32
2024-05-09T21:37:55.246Z,6.30
2024-05-09T21:40:40.635Z,6.88
2024-05-09T21:43:28.528Z,4.95
2024-05-09T21:46:13.887Z,5.95
2024-05-09T21:48:59.360Z,6.43
2024-05-09T21:51:44.770Z,9.65
2024-05-09T21:54:30.437Z,5.07
2024-05-09T21:57:15.322Z,6.70
2024-05-09T22:00:00.304Z,7.78
2024-05-09T22:02:45.304Z,6.28
2024-05-09T22:05:30.574Z,6.80
2024-05-09T22:08:15.873Z,6.40
2024-05-09T22:11:00.841Z,7.55
2024-05-09T22:13:46.159Z,6.55
2024-05-09T22:16:31.138Z,8.98
2024-05-09T22:19:16.830Z,8.75
2024-05-09T22:22:02.238Z,4.80
2024-05-09T22:24:47.671Z,5.50
2024-05-09T22:27:33.136Z,6.22
2024-05-09T22:30:23.983Z,5.75
2024-05-09T22:33:16.694Z,9.35
2024-05-09T22:36:02.192Z,6.20
2024-05-09T22:38:47.008Z,5.35
2024-05-09T22:41:32.090Z,4.40
2024-05-09T22:44:17.184Z,10.32
2024-05-09T22:47:02.803Z,8.73
2024-05-09T22:49:47.860Z,9.98
2024-05-09T22:52:33.194Z,6.88
2024-05-09T22:55:18.087Z,7.55
2024-05-09T22:58:03.134Z,6.53
2024-05-09T23:00:48.523Z,5.93
2024-05-09T23:03:34.271Z,8.43
2024-05-09T23:06:19.680Z,7.78
2024-05-09T23:09:04.567Z,10.20
2024-05-09T23:11:50.048Z,6.60
2024-05-09T23:14:35.208Z,8.45
2024-05-09T23:17:20.327Z,5.53
2024-05-09T23:20:08.847Z,6.43
2024-05-09T23:22:56.396Z,6.55
2024-05-09T23:25:42.067Z,5.68
2024-05-09T23:28:27.699Z,9.40
2024-05-09T23:31:13.016Z,5.53
2024-05-09T23:33:58.715Z,8.77
2024-05-09T23:36:43.864Z,5.55
2024-05-09T23:39:29.438Z,5.78
2024-05-09T23:42:14.490Z,8.20
2024-05-09T23:44:59.336Z,6.25
2024-05-09T23:47:44.952Z,7.90
2024-05-09T23:50:35.579Z,6.95
2024-05-09T23:53:23.177Z,8.73
2024-05-09T23:56:08.195Z,7.25
2024-05-09T23:58:53.154Z,8.50
